createdAt,value
2023-04-18T00:01:39.479Z,84.57
2023-04-18T00:04:18.533Z,85.05
2023-04-18T00:06:51.297Z,84.64
2023-04-18T00:09:27.733Z,84.85
2023-04-18T00:12:05.518Z,85.76
2023-04-18T00:14:44.381Z,85.86
2023-04-18T00:17:19.291Z,85.90
2023-04-18T00:19:53.809Z,85.74
2023-04-18T00:23:14.580Z,85.34
2023-04-18T00:25:50.925Z,84.32
2023-04-18T00:28:22.870Z,83.58
2023-04-18T00:31:06.915Z,83.81
2023-04-18T00:33:41.117Z,84.82
2023-04-18T00:36:15.032Z,85.03
2023-04-18T00:38:47.211Z,85.33
2023-04-18T00:41:21.303Z,85.67
2023-04-18T00:43:59.251Z,85.97
2023-04-18T00:46:38.223Z,86.17
2023-04-18T00:49:16.593Z,85.95
2023-04-18T00:51:49.970Z,85.06
2023-04-18T00:54:22.344Z,84.59
2023-04-18T00:56:59.180Z,84.44
2023-04-18T00:59:31.459Z,84.21
2023-04-18T01:02:07.863Z,84.17
2023-04-18T01:04:39.780Z,83.65
2023-04-18T01:07:12.452Z,83.78
2023-04-18T01:09:47.310Z,84.22
2023-04-18T01:12:19.343Z,84.32
2023-04-18T01:14:52.306Z,84.37
2023-04-18T01:17:27.165Z,84.05
2023-04-18T01:19:59.910Z,83.91
2023-04-18T01:22:35.417Z,83.80
2023-04-18T01:25:14.063Z,84.50
2023-04-18T01:27:46.052Z,84.65
2023-04-18T01:30:18.804Z,84.85
2023-04-18T01:32:53.476Z,85.38
2023-04-18T01:35:26.313Z,85.37
2023-04-18T01:37:59.441Z,84.72
2023-04-18T01:40:34.020Z,85.07
2023-04-18T01:43:06.156Z,84.51
2023-04-18T01:45:42.190Z,84.10
2023-04-18T01:48:17.391Z,84.63
2023-04-18T01:50:52.090Z,84.49
2023-04-18T01:53:22.285Z,84.93
2023-04-18T01:55:54.888Z,84.88
2023-04-18T01:58:27.490Z,85.33
2023-04-18T02:01:02.185Z,85.76
2023-04-18T02:03:32.436Z,85.05
2023-04-18T02:06:04.814Z,84.65
2023-04-18T02:08:38.774Z,84.61
2023-04-18T02:11:15.116Z,85.13
2023-04-18T02:13:47.034Z,85.57
2023-04-18T02:19:33.407Z,84.77
2023-04-18T02:22:09.735Z,84.67
2023-04-18T02:24:48.781Z,83.92
2023-04-18T02:27:23.854Z,83.15
2023-04-18T02:29:55.742Z,83.23
2023-04-18T02:32:29.551Z,83.94
2023-04-18T02:35:04.297Z,84.03
2023-04-18T02:37:34.213Z,84.15
2023-04-18T02:40:07.689Z,84.10
2023-04-18T02:42:42.523Z,84.31
2023-04-18T02:45:14.823Z,85.12
2023-04-18T02:47:54.362Z,84.77
2023-04-18T02:50:33.751Z,84.68
2023-04-18T02:53:05.759Z,84.28
2023-04-18T02:55:37.400Z,84.30
2023-04-18T02:58:13.703Z,84.49
2023-04-18T03:00:45.712Z,85.06
2023-04-18T03:03:20.229Z,84.83
2023-04-18T03:05:55.055Z,84.47
2023-04-18T03:08:30.112Z,84.24
2023-04-18T03:11:02.623Z,84.63
2023-04-18T03:13:35.807Z,84.48
2023-04-18T03:16:08.432Z,83.93
2023-04-18T03:18:40.616Z,83.47
2023-04-18T03:21:12.351Z,83.48
2023-04-18T03:23:46.756Z,83.57
2023-04-18T03:26:18.852Z,83.37
2023-04-18T03:28:55.332Z,82.43
2023-04-18T03:31:27.251Z,82.56
2023-04-18T03:33:59.029Z,82.56
2023-04-18T03:36:31.698Z,83.25
2023-04-18T03:39:03.583Z,83.14
2023-04-18T03:41:35.333Z,83.20
2023-04-18T03:44:35.234Z,83.18
2023-04-18T03:47:50.598Z,82.85
2023-04-18T03:54:39.905Z,83.52
2023-04-18T03:58:14.843Z,83.78
2023-04-18T04:00:46.886Z,82.99
2023-04-18T04:03:18.773Z,82.94
2023-04-18T04:05:50.664Z,82.67
2023-04-18T04:08:28.176Z,82.84
2023-04-18T04:11:00.577Z,83.46
2023-04-18T04:13:33.852Z,83.77
2023-04-18T04:16:38.297Z,83.81
2023-04-18T04:19:10.376Z,83.62
2023-04-18T04:21:42.422Z,82.79
2023-04-18T04:24:14.305Z,83.14
2023-04-18T04:26:50.410Z,83.91
2023-04-18T04:29:24.217Z,83.93
2023-04-18T04:31:56.943Z,83.91
2023-04-18T04:34:28.975Z,83.94
2023-04-18T04:37:01.889Z,84.21
2023-04-18T04:39:37.368Z,83.87
2023-04-18T04:42:10.306Z,83.15
2023-04-18T04:44:43.287Z,83.34
2023-04-18T04:47:21.204Z,83.87
2023-04-18T04:49:53.184Z,84.20
2023-04-18T04:52:30.462Z,84.28
2023-04-18T04:55:02.796Z,84.08
2023-04-18T04:57:34.750Z,83.51
2023-04-18T05:00:11.083Z,83.47
2023-04-18T05:02:44.546Z,83.45
2023-04-18T05:05:17.610Z,83.66
2023-04-18T05:07:49.665Z,84.43
2023-04-18T05:10:21.451Z,84.38
2023-04-18T05:12:53.161Z,84.40
2023-04-18T05:15:30.818Z,84.67
2023-04-18T05:18:02.525Z,84.64
2023-04-18T05:20:34.433Z,84.67
2023-04-18T05:23:06.329Z,83.88
2023-04-18T05:25:39.009Z,84.00
2023-04-18T05:28:10.922Z,83.01
2023-04-18T05:30:42.997Z,82.46
2023-04-18T05:33:14.691Z,82.75
2023-04-18T05:35:46.279Z,82.98
2023-04-18T05:38:17.616Z,83.16
2023-04-18T05:40:51.312Z,83.27
2023-04-18T05:43:22.730Z,83.62
2023-04-18T05:45:55.800Z,83.89
2023-04-18T05:48:28.565Z,83.81
2023-04-18T05:51:00.919Z,83.31
2023-04-18T05:53:32.355Z,82.76
2023-04-18T05:56:03.929Z,82.26
2023-04-18T05:58:35.444Z,82.05
2023-04-18T06:01:07.218Z,82.08
2023-04-18T06:03:38.824Z,82.35
2023-04-18T06:06:10.942Z,82.17
2023-04-18T06:08:42.727Z,81.75
2023-04-18T06:11:15.317Z,81.90
2023-04-18T06:13:46.643Z,81.75
2023-04-18T06:16:18.463Z,81.22
2023-04-18T06:18:49.902Z,81.48
2023-04-18T06:21:21.797Z,81.64
2023-04-18T06:23:53.286Z,81.42
2023-04-18T06:26:26.158Z,81.35
2023-04-18T06:28:57.512Z,81.53
2023-04-18T06:31:29.372Z,81.27
2023-04-18T06:34:00.683Z,81.05
2023-04-18T06:36:32.194Z,80.77
2023-04-18T06:39:04.097Z,81.08
2023-04-18T06:41:36.117Z,80.77
2023-04-18T06:44:07.768Z,80.46
2023-04-18T06:46:39.218Z,80.59
2023-04-18T06:49:11.328Z,79.92
2023-04-18T06:51:42.686Z,79.48
2023-04-18T06:54:14.337Z,80.02
2023-04-18T06:56:49.614Z,79.81
2023-04-18T06:59:22.036Z,79.87
2023-04-18T07:01:55.048Z,79.83
2023-04-18T07:04:26.604Z,79.93
2023-04-18T07:07:10.995Z,80.29
2023-04-18T07:09:43.088Z,80.09
2023-04-18T07:12:14.775Z,79.80
2023-04-18T07:14:46.524Z,80.00
2023-04-18T07:17:18.092Z,79.39
2023-04-18T07:19:49.685Z,79.43
2023-04-18T07:22:21.173Z,79.32
2023-04-18T07:24:52.936Z,78.51
2023-04-18T07:27:24.485Z,78.14
2023-04-18T07:29:56.080Z,77.65
2023-04-18T07:32:28.057Z,77.45
2023-04-18T07:34:59.648Z,77.06
2023-04-18T07:37:31.286Z,77.00
2023-04-18T07:40:02.950Z,77.30
2023-04-18T07:42:34.580Z,78.05
2023-04-18T07:45:07.589Z,78.24
2023-04-18T07:47:39.345Z,78.35
2023-04-18T07:50:12.720Z,77.43
2023-04-18T07:52:48.196Z,77.49
2023-04-18T07:55:19.941Z,77.44
2023-04-18T07:57:51.952Z,77.05
2023-04-18T08:00:24.137Z,76.22
2023-04-18T08:02:55.832Z,76.19
2023-04-18T08:05:27.976Z,76.90
2023-04-18T08:07:59.432Z,76.81
2023-04-18T08:10:31.425Z,77.32
2023-04-18T08:13:03.133Z,76.99
2023-04-18T08:15:34.534Z,76.99
2023-04-18T08:18:06.273Z,76.73
2023-04-18T08:20:37.837Z,76.86
2023-04-18T08:23:11.426Z,76.69
2023-04-18T08:25:44.391Z,75.21
2023-04-18T08:28:16.003Z,75.19
2023-04-18T08:30:49.581Z,75.03
2023-04-18T08:33:21.692Z,74.57
2023-04-18T08:35:53.979Z,75.27
2023-04-18T08:38:26.224Z,75.35
2023-04-18T08:40:57.904Z,75.73
2023-04-18T08:43:31.415Z,74.91
2023-04-18T08:46:03.203Z,74.46
2023-04-18T08:48:34.887Z,73.75
2023-04-18T08:51:08.225Z,73.22
2023-04-18T08:53:42.605Z,73.52
2023-04-18T08:56:17.979Z,74.14
2023-04-18T08:58:51.253Z,74.15
2023-04-18T09:01:23.472Z,73.87
2023-04-18T09:03:58.663Z,73.32
2023-04-18T09:06:31.260Z,73.94
2023-04-18T09:09:04.792Z,73.23
2023-04-18T09:11:39.582Z,72.77
2023-04-18T09:14:58.878Z,72.18
2023-04-18T09:17:42.275Z,72.42
2023-04-18T09:20:31.136Z,72.31
2023-04-18T09:23:05.512Z,71.52
2023-04-18T09:25:43.307Z,71.52
2023-04-18T09:28:36.602Z,70.91
2023-04-18T09:31:19.036Z,70.60
2023-04-18T09:34:52.675Z,70.03
2023-04-18T09:38:05.295Z,70.33
2023-04-18T09:40:38.594Z,70.39
2023-04-18T09:43:31.800Z,69.77
2023-04-18T09:46:15.422Z,69.95
2023-04-18T09:49:03.072Z,69.86
2023-04-18T09:51:38.411Z,69.72
2023-04-18T09:54:18.985Z,69.61
2023-04-18T09:56:54.026Z,68.82
2023-04-18T09:59:43.385Z,68.45
2023-04-18T10:02:22.452Z,68.14
2023-04-18T10:04:57.993Z,67.68
2023-04-18T10:07:33.278Z,67.38
2023-04-18T10:10:05.640Z,67.35
2023-04-18T10:12:38.280Z,66.49
2023-04-18T10:15:12.989Z,66.35
2023-04-18T10:18:00.275Z,66.58
2023-04-18T10:20:38.300Z,66.40
2023-04-18T10:23:40.727Z,66.24
2023-04-18T10:26:14.398Z,66.30
2023-04-18T10:28:59.036Z,66.21
2023-04-18T10:31:41.885Z,66.54
2023-04-18T10:34:18.707Z,66.34
2023-04-18T10:37:07.354Z,66.13
2023-04-18T10:39:57.998Z,65.86
2023-04-18T10:43:02.972Z,65.81
2023-04-18T10:45:36.874Z,66.08
2023-04-18T10:48:30.542Z,65.76
2023-04-18T10:51:19.756Z,64.95
2023-04-18T10:53:58.010Z,65.29
2023-04-18T10:56:32.998Z,65.32
2023-04-18T10:59:08.805Z,65.23
2023-04-18T11:01:48.485Z,65.06
2023-04-18T11:04:21.209Z,64.09
2023-04-18T11:06:56.465Z,63.92
2023-04-18T11:09:28.125Z,64.51
2023-04-18T11:12:12.432Z,65.00
2023-04-18T11:14:46.784Z,65.04
2023-04-18T11:17:25.002Z,65.18
2023-04-18T11:20:19.451Z,64.37
2023-04-18T11:22:52.880Z,62.80
2023-04-18T11:25:29.617Z,62.09
2023-04-18T11:28:05.835Z,61.91
2023-04-18T11:30:43.279Z,62.60
2023-04-18T11:33:17.415Z,61.68
2023-04-18T11:35:50.145Z,60.49
2023-04-18T11:38:23.892Z,59.81
2023-04-18T11:40:56.870Z,60.21
2023-04-18T11:43:30.236Z,60.30
2023-04-18T11:46:02.897Z,59.40
2023-04-18T11:48:39.684Z,59.68
2023-04-18T11:51:36.220Z,60.20
2023-04-18T11:54:28.522Z,59.94
2023-04-18T11:57:00.781Z,59.99
2023-04-18T11:59:33.806Z,60.28
2023-04-18T12:04:58.309Z,59.13
2023-04-18T12:07:38.949Z,59.04
2023-04-18T12:10:25.686Z,58.65
2023-04-18T12:13:00.437Z,58.15
2023-04-18T12:15:34.073Z,58.65
2023-04-18T12:18:12.248Z,57.38
2023-04-18T12:20:54.748Z,57.41
2023-04-18T12:23:46.653Z,57.00
2023-04-18T12:26:33.918Z,57.38
2023-04-18T12:29:09.360Z,57.63
2023-04-18T12:31:44.033Z,57.53
2023-04-18T12:34:19.119Z,58.44
2023-04-18T12:36:57.392Z,58.45
2023-04-18T12:39:29.417Z,58.99
2023-04-18T12:42:11.846Z,59.11
2023-04-18T12:44:51.841Z,58.17
2023-04-18T12:47:33.282Z,58.36
2023-04-18T12:50:16.078Z,57.62
2023-04-18T12:52:51.426Z,57.28
2023-04-18T12:55:25.035Z,57.12
2023-04-18T12:58:03.364Z,57.37
2023-04-18T13:00:38.496Z,56.44
2023-04-18T13:03:13.081Z,56.31
2023-04-18T13:05:47.696Z,57.09
2023-04-18T13:08:20.103Z,57.25
2023-04-18T13:10:54.073Z,57.60
2023-04-18T13:13:28.732Z,57.48
2023-04-18T13:16:01.431Z,57.34
2023-04-18T13:18:33.386Z,57.10
2023-04-18T13:21:12.047Z,57.13
2023-04-18T13:23:44.520Z,56.82
2023-04-18T13:26:16.546Z,56.78
2023-04-18T13:28:48.690Z,56.93
2023-04-18T13:31:22.888Z,56.97
2023-04-18T13:33:54.854Z,57.05
2023-04-18T13:36:28.244Z,56.93
2023-04-18T13:39:01.196Z,56.48
2023-04-18T13:41:33.613Z,56.46
2023-04-18T13:44:06.080Z,57.13
2023-04-18T13:46:38.544Z,57.30
2023-04-18T13:49:10.345Z,57.45
2023-04-18T13:51:53.537Z,57.30
2023-04-18T13:54:27.027Z,57.23
2023-04-18T13:57:01.320Z,57.32
2023-04-18T13:59:34.250Z,57.16
2023-04-18T14:02:06.368Z,56.82
2023-04-18T14:04:39.736Z,56.88
2023-04-18T14:07:11.558Z,56.95
2023-04-18T14:09:44.449Z,56.81
2023-04-18T14:12:19.514Z,56.71
2023-04-18T14:14:51.338Z,56.36
2023-04-18T14:17:25.482Z,56.19
2023-04-18T14:20:09.673Z,56.15
2023-04-18T14:22:41.441Z,55.75
2023-04-18T14:25:14.825Z,56.42
2023-04-18T14:27:48.559Z,56.50
2023-04-18T14:30:20.609Z,56.43
2023-04-18T14:32:53.103Z,56.92
2023-04-18T14:35:24.911Z,56.91
2023-04-18T14:37:57.178Z,56.44
2023-04-18T14:40:33.899Z,56.32
2023-04-18T14:43:12.391Z,56.68
2023-04-18T14:45:44.209Z,56.58
2023-04-18T14:48:16.165Z,56.80
2023-04-18T14:50:47.926Z,57.60
2023-04-18T14:53:24.782Z,57.67
2023-04-18T14:55:57.138Z,56.65
2023-04-18T14:58:42.804Z,55.92
2023-04-18T15:01:20.131Z,54.76
2023-04-18T15:04:01.312Z,54.47
2023-04-18T15:10:25.438Z,54.74
2023-04-18T15:13:13.709Z,54.42
2023-04-18T15:15:54.261Z,54.30
2023-04-18T15:19:36.795Z,53.52
2023-04-18T15:22:31.977Z,53.68
2023-04-18T15:25:42.077Z,53.71
2023-04-18T15:28:43.101Z,53.64
2023-04-18T15:31:40.927Z,54.07
2023-04-18T15:34:21.895Z,54.44
2023-04-18T15:37:17.270Z,54.23
2023-04-18T15:39:55.570Z,54.07
2023-04-18T15:42:37.383Z,53.44
2023-04-18T15:45:18.234Z,53.38
2023-04-18T15:47:55.455Z,52.82
2023-04-18T15:50:33.382Z,52.53
2023-04-18T15:53:19.278Z,52.88
2023-04-18T15:56:14.749Z,52.85
2023-04-18T15:59:03.154Z,53.50
2023-04-18T16:01:46.285Z,53.67
2023-04-18T16:04:26.943Z,53.66
2023-04-18T16:07:09.536Z,53.61
2023-04-18T16:09:42.724Z,53.60
2023-04-18T16:12:17.109Z,53.56
2023-04-18T16:14:51.006Z,53.81
2023-04-18T16:17:26.089Z,53.93
2023-04-18T16:19:58.250Z,53.63
2023-04-18T16:22:33.007Z,53.64
2023-04-18T16:25:08.793Z,52.44
2023-04-18T16:27:42.976Z,52.00
2023-04-18T16:30:18.997Z,52.18
2023-04-18T16:33:03.138Z,51.69
2023-04-18T16:35:38.999Z,51.61
2023-04-18T16:38:17.018Z,51.14
2023-04-18T16:40:59.225Z,50.92
2023-04-18T16:43:34.722Z,50.85
2023-04-18T16:46:12.017Z,50.64
2023-04-18T16:48:45.580Z,49.95
2023-04-18T16:51:18.461Z,50.40
2023-04-18T16:53:52.236Z,51.00
2023-04-18T16:56:47.434Z,51.04
2023-04-18T16:59:28.851Z,51.11
2023-04-18T17:02:12.350Z,51.68
2023-04-18T17:04:54.840Z,51.39
2023-04-18T17:07:36.054Z,51.52
2023-04-18T17:10:28.407Z,51.73
2023-04-18T17:13:16.516Z,51.48
2023-04-18T17:15:50.454Z,51.58
2023-04-18T17:18:25.530Z,51.77
2023-04-18T17:21:01.299Z,52.05
2023-04-18T17:23:34.880Z,52.15
2023-04-18T17:26:08.335Z,52.14
2023-04-18T17:28:41.079Z,52.23
2023-04-18T17:31:17.241Z,52.50
2023-04-18T17:34:29.532Z,52.35
2023-04-18T17:38:53.799Z,52.38
2023-04-18T17:41:17.596Z,52.51
2023-04-18T17:43:53.875Z,52.27
2023-04-18T17:46:30.967Z,52.46
2023-04-18T17:49:03.280Z,52.53
2023-04-18T17:51:35.267Z,52.62
2023-04-18T17:54:10.163Z,52.59
2023-04-18T17:56:48.620Z,52.29
2023-04-18T17:59:25.036Z,52.25
2023-04-18T18:02:04.755Z,52.83
2023-04-18T18:04:46.320Z,53.32
2023-04-18T18:07:24.140Z,53.30
2023-04-18T18:13:03.815Z,53.85
2023-04-18T18:15:50.997Z,54.07
2023-04-18T18:18:25.059Z,54.01
2023-04-18T18:20:58.122Z,53.75
2023-04-18T18:23:33.597Z,53.30
2023-04-18T18:26:14.066Z,53.29
2023-04-18T18:28:54.091Z,53.27
2023-04-18T18:31:34.047Z,53.59
2023-04-18T18:34:21.172Z,53.76
2023-04-18T18:36:59.509Z,53.41
2023-04-18T18:39:48.162Z,53.36
2023-04-18T18:42:24.174Z,53.35
2023-04-18T18:44:59.911Z,53.59
2023-04-18T18:47:40.001Z,53.80
2023-04-18T18:53:04.019Z,53.57
2023-04-18T18:55:48.703Z,53.61
2023-04-18T18:58:25.671Z,53.55
2023-04-18T19:01:05.066Z,53.92
2023-04-18T19:03:44.379Z,54.38
2023-04-18T19:06:18.447Z,54.56
2023-04-18T19:08:53.423Z,54.48
2023-04-18T19:11:33.333Z,54.36
2023-04-18T19:14:09.572Z,54.64
2023-04-18T19:16:43.360Z,54.47
2023-04-18T19:19:21.435Z,54.23
2023-04-18T19:21:53.912Z,54.40
2023-04-18T19:24:30.597Z,54.45
2023-04-18T19:27:06.133Z,54.45
2023-04-18T19:29:40.536Z,54.56
2023-04-18T19:32:18.241Z,54.75
2023-04-18T19:34:54.407Z,54.53
2023-04-18T19:37:26.941Z,54.30
2023-04-18T19:40:07.858Z,54.18
2023-04-18T19:42:41.563Z,54.20
2023-04-18T19:45:17.018Z,54.55
2023-04-18T19:47:53.131Z,54.56
2023-04-18T19:50:27.180Z,54.73
2023-04-18T19:53:17.153Z,54.83
2023-04-18T19:55:50.823Z,55.07
2023-04-18T19:58:46.300Z,55.25
2023-04-18T20:01:24.372Z,55.24
2023-04-18T20:03:59.742Z,55.34
2023-04-18T20:06:34.148Z,55.46
2023-04-18T20:09:11.982Z,55.57
2023-04-18T20:11:47.341Z,56.17
2023-04-18T20:14:27.671Z,56.19
2023-04-18T20:17:10.504Z,56.30
2023-04-18T20:19:51.595Z,56.59
2023-04-18T20:22:28.081Z,56.72
2023-04-18T20:25:18.582Z,57.04
2023-04-18T20:28:02.374Z,56.94
2023-04-18T20:30:37.122Z,57.10
2023-04-18T20:33:10.065Z,57.29
2023-04-18T20:35:45.263Z,57.50
2023-04-18T20:38:18.674Z,58.14
2023-04-18T20:41:02.283Z,58.76
2023-04-18T20:43:41.072Z,58.77
2023-04-18T20:46:19.220Z,58.80
2023-04-18T20:49:10.301Z,59.08
2023-04-18T20:51:43.489Z,59.29
2023-04-18T20:54:16.107Z,59.40
2023-04-18T20:56:48.139Z,59.38
2023-04-18T20:59:25.052Z,59.51
2023-04-18T21:02:01.382Z,59.64
2023-04-18T21:04:33.443Z,59.46
2023-04-18T21:07:07.890Z,59.66
2023-04-18T21:09:42.497Z,60.58
2023-04-18T21:12:12.342Z,60.90
2023-04-18T21:14:43.951Z,61.38
2023-04-18T21:17:17.717Z,61.85
2023-04-18T21:19:50.380Z,61.30
2023-04-18T21:22:24.470Z,61.13
2023-04-18T21:24:57.496Z,61.20
2023-04-18T21:27:30.706Z,61.46
2023-04-18T21:30:07.257Z,61.26
2023-04-18T21:32:41.072Z,61.22
2023-04-18T21:35:14.208Z,61.36
2023-04-18T21:37:46.046Z,60.99
2023-04-18T21:40:19.322Z,60.79
2023-04-18T21:42:53.076Z,60.54
2023-04-18T21:45:26.377Z,60.49
2023-04-18T21:47:59.578Z,61.01
2023-04-18T21:50:31.680Z,61.09
2023-04-18T21:53:03.699Z,61.28
2023-04-18T21:55:35.953Z,62.42
2023-04-18T21:58:07.633Z,62.09
2023-04-18T22:00:39.163Z,62.32
2023-04-18T22:03:11.513Z,62.07
2023-04-18T22:05:44.444Z,62.17
2023-04-18T22:08:16.478Z,62.11
2023-04-18T22:10:50.761Z,62.51
2023-04-18T22:13:22.572Z,62.37
2023-04-18T22:15:56.556Z,62.53
2023-04-18T22:18:33.881Z,62.01
2023-04-18T22:21:08.087Z,61.92
2023-04-18T22:23:39.710Z,62.53
2023-04-18T22:26:11.428Z,62.80
2023-04-18T22:28:43.566Z,63.53
2023-04-18T22:31:16.446Z,63.50
2023-04-18T22:33:49.048Z,63.35
2023-04-18T22:36:20.570Z,63.21
2023-04-18T22:38:52.903Z,63.56
2023-04-18T22:41:24.670Z,64.36
2023-04-18T22:43:56.834Z,64.58
2023-04-18T22:46:28.349Z,64.86
2023-04-18T22:48:59.902Z,64.85
2023-04-18T22:51:32.211Z,65.32
2023-04-18T22:54:03.717Z,65.20
2023-04-18T22:56:38.033Z,65.77
2023-04-18T22:59:09.558Z,65.66
2023-04-18T23:01:42.319Z,66.10
2023-04-18T23:04:20.173Z,66.64
2023-04-18T23:06:51.847Z,66.91
2023-04-18T23:09:23.450Z,66.79
2023-04-18T23:11:54.890Z,66.73
2023-04-18T23:14:26.316Z,66.93
2023-04-18T23:16:57.772Z,66.80
2023-04-18T23:19:29.442Z,66.93
2023-04-18T23:22:01.172Z,67.26
2023-04-18T23:24:34.927Z,67.48
2023-04-18T23:27:11.652Z,66.99
2023-04-18T23:29:43.744Z,67.42
2023-04-18T23:32:15.171Z,68.31
2023-04-18T23:34:48.313Z,68.62
2023-04-18T23:37:19.796Z,68.44
2023-04-18T23:39:54.615Z,68.92
2023-04-18T23:42:26.464Z,69.04
2023-04-18T23:44:59.190Z,69.15
2023-04-18T23:47:33.168Z,69.39
2023-04-18T23:50:04.992Z,69.50
2023-04-18T23:52:38.960Z,69.97
2023-04-18T23:55:12.013Z,70.20
2023-04-18T23:57:47.303Z,70.61
